Time;durP1;ratioP1;P1;durP2;ratioP2;P2;SDS_P1;SDS_P2;PMS_P1;PMS_P2;Temp;Humidity;BMP_temperature;BMP_pressure;BME280_temperature;BME280_humidity;BME280_pressure;Samples;Min_cycle;Max_cycle;Signal;HPM_P1;HPM_P2
2022/03/21 00:01:17;;;;;;;13.67;7.60;;;12.10;56.50;;;12.55;35.96;101993.13;5071849;28;21025;-68
2022/03/21 00:03:45;;;;;;;11.70;7.20;;;12.10;56.80;;;12.55;36.21;101997.50;5064286;28;21194;-68
2022/03/21 00:06:12;;;;;;;4.37;2.67;;;12.00;57.00;;;12.48;36.08;102003.09;5074105;28;20615;-68
2022/03/21 00:08:39;;;;;;;13.67;7.73;;;12.00;57.50;;;12.36;36.79;101998.59;5093497;28;20641;-68
2022/03/21 00:11:07;;;;;;;12.90;7.03;;;11.90;57.70;;;12.30;36.33;101998.94;5053704;28;20991;-68
2022/03/21 00:13:35;;;;;;;14.20;7.20;;;11.80;58.00;;;12.19;37.06;101998.72;5065398;28;21022;-68
2022/03/21 00:16:03;;;;;;;12.00;7.37;;;11.70;58.40;;;12.14;37.05;101992.88;5066342;28;21268;-68
2022/03/21 00:18:30;;;;;;;13.20;7.77;;;11.60;58.90;;;12.01;37.92;101996.31;5073038;28;21088;-67
2022/03/21 00:20:57;;;;;;;13.80;7.53;;;11.50;59.30;;;11.89;38.38;102007.44;5071969;28;20711;-68
2022/03/21 00:23:26;;;;;;;13.30;7.10;;;11.30;60.00;;;11.80;38.34;102006.16;5055007;28;20998;-68
2022/03/21 00:25:53;;;;;;;13.60;7.80;;;11.30;60.30;;;11.73;39.05;102006.59;5076706;28;20705;-68
2022/03/21 00:28:20;;;;;;;14.80;7.77;;;11.20;60.70;;;11.63;39.19;102001.00;5061755;28;21041;-69
2022/03/21 00:30:48;;;;;;;14.93;7.63;;;11.10;61.10;;;11.65;38.60;102009.59;5067811;28;20642;-68
2022/03/21 00:33:15;;;;;;;11.20;6.70;;;11.10;61.40;;;11.64;39.23;102007.94;5084034;28;20701;-68
2022/03/21 00:35:42;;;;;;;11.93;6.70;;;11.10;61.10;;;11.52;39.18;101996.34;5083612;28;21279;-69
2022/03/21 00:38:14;;;;;;;11.10;5.90;;;11.10;61.30;;;11.39;39.48;102004.94;5071519;28;20660;-68
2022/03/21 00:40:45;;;;;;;9.70;5.80;;;11.00;61.70;;;11.34;39.64;101996.50;5060654;28;20716;-68
2022/03/21 00:43:21;;;;;;;9.63;5.30;;;10.90;61.90;;;11.29;39.48;101993.28;5066022;28;20631;-68
2022/03/21 00:45:54;;;;;;;11.07;6.50;;;10.90;62.30;;;11.27;40.10;101993.38;5065648;28;20728;-68
2022/03/21 00:48:22;;;;;;;8.80;5.50;;;10.80;62.40;;;11.21;39.92;102003.31;5051558;28;21226;-68
2022/03/21 00:50:50;;;;;;;15.60;7.17;;;10.70;62.80;;;11.12;40.73;102002.03;5051888;28;20616;-68
2022/03/21 00:53:18;;;;;;;13.20;7.23;;;10.60;63.10;;;11.03;40.87;102002.50;5057246;28;20640;-68
2022/03/21 00:55:47;;;;;;;17.20;8.37;;;10.50;63.50;;;11.00;41.07;102007.03;5068185;28;20745;-68
2022/03/21 00:58:14;;;;;;;12.53;7.57;;;10.50;63.70;;;10.96;41.76;102008.13;5054353;28;20650;-68
2022/03/21 01:00:42;;;;;;;17.37;8.20;;;10.40;64.30;;;10.88;41.00;102001.53;5047948;28;20660;-68
2022/03/21 01:03:10;;;;;;;12.50;7.50;;;10.40;65.00;;;10.83;41.75;101998.31;5068173;28;20635;-68
2022/03/21 01:05:37;;;;;;;14.63;7.90;;;10.30;64.80;;;10.77;41.88;102013.47;5062317;28;20738;-68
2022/03/21 01:08:05;;;;;;;13.13;7.80;;;10.30;65.50;;;10.73;42.53;102009.31;5071561;28;20741;-70
2022/03/21 01:10:33;;;;;;;16.83;8.27;;;10.20;65.90;;;10.68;43.28;102000.88;5072665;28;20637;-68
2022/03/21 01:13:00;;;;;;;16.10;9.00;;;10.20;66.80;;;10.61;43.76;102002.94;5071818;28;20676;-68
2022/03/21 01:15:28;;;;;;;14.20;8.23;;;10.10;67.40;;;10.55;44.03;102003.25;5071976;28;20656;-68
2022/03/21 01:17:57;;;;;;;16.97;9.67;;;10.00;68.00;;;10.53;43.92;102005.09;5062715;28;20665;-70
2022/03/21 01:20:25;;;;;;;17.33;8.33;;;10.00;68.30;;;10.51;43.93;102012.16;5063742;28;20691;-68
2022/03/21 01:22:52;;;;;;;18.87;9.73;;;10.00;68.90;;;10.43;44.31;102011.69;5071805;28;20721;-69
2022/03/21 01:25:19;;;;;;;17.40;9.60;;;9.90;69.50;;;10.43;44.59;102014.31;5073097;28;20619;-68
2022/03/21 01:27:47;;;;;;;20.10;10.30;;;9.90;69.90;;;10.39;45.01;102017.97;5072538;28;20642;-68
2022/03/21 01:30:15;;;;;;;15.40;9.30;;;9.90;70.20;;;10.32;45.08;102014.00;5073515;28;20626;-68
2022/03/21 01:32:43;;;;;;;14.13;7.30;;;9.80;70.70;;;10.30;45.18;102015.84;5054405;28;20630;-69
2022/03/21 01:35:15;;;;;;;18.03;8.47;;;9.80;71.30;;;10.21;46.00;102020.63;5054026;28;21110;-68
2022/03/21 01:37:42;;;;;;;15.10;8.40;;;9.70;72.00;;;10.12;46.62;102007.13;5071475;28;20645;-68
2022/03/21 01:40:11;;;;;;;15.60;8.40;;;9.70;73.30;;;10.04;46.48;102017.06;5071203;28;20615;-68
2022/03/21 01:42:41;;;;;;;12.80;7.37;;;9.60;73.80;;;10.01;46.96;102025.00;5078004;28;20644;-68
2022/03/21 01:45:08;;;;;;;15.20;8.40;;;9.50;74.50;;;9.98;46.69;102021.72;5066570;28;20622;-69
2022/03/21 01:47:35;;;;;;;14.40;7.57;;;9.50;75.00;;;9.94;47.82;102026.25;5092278;28;20633;-68
2022/03/21 01:50:04;;;;;;;16.63;9.87;;;9.50;75.80;;;9.86;47.94;102023.13;5093009;28;21203;-68
2022/03/21 01:52:33;;;;;;;17.07;9.23;;;9.40;76.70;;;9.78;48.13;102021.78;5088605;28;20737;-68
2022/03/21 01:57:47;;;;;;;17.97;8.10;;;9.30;78.50;;;9.70;48.82;102021.31;5086601;28;20736;-68
2022/03/21 02:00:14;;;;;;;13.57;7.57;;;9.20;79.30;;;9.70;49.13;102032.59;5074104;28;20610;-68
2022/03/21 02:02:42;;;;;;;20.30;8.87;;;9.20;80.10;;;9.64;48.66;102019.00;5083742;28;20635;-68
2022/03/21 02:05:10;;;;;;;16.60;7.80;;;9.20;80.70;;;9.59;49.01;102020.94;5054457;28;20625;-68
2022/03/21 02:07:37;;;;;;;14.33;7.80;;;9.10;81.20;;;9.53;49.46;102022.09;5072203;28;20667;-68
2022/03/21 02:10:06;;;;;;;15.67;8.67;;;9.10;81.90;;;9.49;49.43;102024.91;5069243;28;20629;-68
2022/03/21 02:12:34;;;;;;;17.03;8.63;;;9.00;82.60;;;9.43;50.02;102027.78;5070351;28;20631;-68
2022/03/21 02:15:03;;;;;;;14.33;7.20;;;9.00;83.80;;;9.41;49.58;102030.47;5052521;28;20661;-68
2022/03/21 02:17:34;;;;;;;19.90;7.07;;;9.00;84.10;;;9.38;49.67;102034.06;5069804;28;21127;-68
2022/03/21 02:20:02;;;;;;;15.60;8.30;;;9.00;85.20;;;9.34;49.92;102037.72;5065681;28;21016;-69
2022/03/21 02:23:08;;;;;;;15.03;7.90;;;8.90;86.10;;;9.27;50.69;102031.06;5064409;28;20641;-69
2022/03/21 02:25:41;;;;;;;18.47;8.70;;;8.80;86.60;;;9.26;50.67;102024.16;5070334;28;20630;-69
2022/03/21 02:28:12;;;;;;;15.53;8.00;;;8.80;87.30;;;9.21;50.88;102028.75;5072062;28;20779;-68
2022/03/21 02:30:46;;;;;;;15.97;8.30;;;8.80;88.10;;;9.22;50.72;102033.03;5072045;28;20656;-69
2022/03/21 02:33:16;;;;;;;17.23;8.40;;;8.80;88.80;;;9.24;50.70;102028.59;5054537;28;20602;-69
2022/03/21 02:35:48;;;;;;;14.30;8.00;;;8.80;88.70;;;9.21;50.36;102033.97;5070456;28;20669;-70
2022/03/21 02:38:17;;;;;;;12.33;7.63;;;8.80;89.30;;;9.23;50.36;102034.72;5060616;28;20631;-70
2022/03/21 02:40:44;;;;;;;14.07;7.57;;;8.80;88.80;;;9.33;50.19;102036.00;5069420;28;20641;-68
2022/03/21 02:43:11;;;;;;;14.57;8.30;;;8.90;88.40;;;9.37;50.02;102037.56;5080629;28;20641;-68
2022/03/21 02:45:40;;;;;;;14.00;7.50;;;9.00;88.00;;;9.41;49.91;102034.81;5090659;28;20632;-68
2022/03/21 02:48:08;;;;;;;13.30;7.77;;;9.00;87.70;;;9.42;49.34;102034.75;5077934;28;20850;-68
2022/03/21 02:50:43;;;;;;;15.17;7.90;;;9.00;87.40;;;9.49;48.84;102037.94;5069846;28;20615;-71
2022/03/21 02:53:12;;;;;;;12.77;7.17;;;9.10;86.30;;;9.54;48.39;102033.38;5066515;28;20661;-68
2022/03/21 02:55:41;;;;;;;13.77;8.10;;;9.20;85.50;;;9.56;48.26;102029.75;5090720;28;20698;-69
2022/03/21 02:58:08;;;;;;;13.40;7.90;;;9.20;85.30;;;9.60;47.90;102038.28;5077723;28;20658;-69
2022/03/21 03:00:35;;;;;;;14.27;7.80;;;9.20;85.10;;;9.66;47.62;102035.41;5070143;28;20685;-69
2022/03/21 03:03:02;;;;;;;15.10;8.00;;;9.30;84.10;;;9.61;47.56;102033.00;5069795;28;21322;-69
2022/03/21 03:05:29;;;;;;;12.83;7.63;;;9.30;83.10;;;9.67;47.53;102034.50;5052696;28;20684;-69
2022/03/21 03:07:56;;;;;;;13.37;7.60;;;9.30;82.90;;;9.66;46.98;102038.00;5062372;28;20749;-68
2022/03/21 03:10:23;;;;;;;14.20;7.80;;;9.30;82.40;;;9.68;46.54;102038.78;5070759;28;20698;-71
2022/03/21 03:12:50;;;;;;;16.47;8.47;;;9.30;81.60;;;9.77;46.47;102039.22;5067018;28;20639;-70
2022/03/21 03:15:17;;;;;;;18.90;8.07;;;9.40;80.90;;;9.80;45.90;102043.41;5068963;28;20654;-69
2022/03/21 03:17:44;;;;;;;12.00;7.07;;;9.50;79.80;;;9.81;45.71;102047.72;5069436;28;20654;-71
2022/03/21 03:20:11;;;;;;;12.30;7.20;;;9.50;79.10;;;9.83;45.11;102046.75;5070787;28;20617;-70
2022/03/21 03:22:39;;;;;;;12.83;7.23;;;9.50;78.40;;;9.85;45.34;102041.44;5087110;28;20634;-72
2022/03/21 03:25:07;;;;;;;15.20;7.30;;;9.50;78.20;;;9.91;45.48;102048.97;5072110;28;20614;-69
2022/03/21 03:27:34;;;;;;;16.90;8.50;;;9.50;78.00;;;9.94;45.27;102052.31;5087563;28;20662;-69
2022/03/21 03:30:01;;;;;;;13.20;7.57;;;9.60;77.40;;;9.91;44.37;102048.97;5063544;28;20635;-69
2022/03/21 03:32:29;;;;;;;14.27;7.73;;;9.60;76.30;;;9.97;44.17;102054.75;5083310;28;20621;-70
2022/03/21 03:34:56;;;;;;;14.20;7.90;;;9.60;76.30;;;9.98;44.53;102061.69;5076595;28;20667;-69
2022/03/21 03:37:23;;;;;;;13.87;7.40;;;9.60;76.30;;;9.97;44.36;102053.91;5071308;28;20642;-70
2022/03/21 03:39:50;;;;;;;11.80;6.27;;;9.60;75.80;;;9.99;43.84;102052.06;5052591;28;20637;-69
2022/03/21 03:42:17;;;;;;;11.30;7.20;;;9.60;75.50;;;9.96;44.34;102052.22;5074419;28;21484;-70
2022/03/21 03:44:45;;;;;;;15.00;7.70;;;9.60;75.80;;;9.99;44.50;102055.53;5064253;28;20648;-69
2022/03/21 03:47:12;;;;;;;11.67;6.93;;;9.60;75.70;;;10.00;44.49;102057.25;5077486;28;20983;-68
2022/03/21 03:49:39;;;;;;;11.27;7.30;;;9.70;76.20;;;9.98;44.26;102053.84;5090102;28;20614;-69
2022/03/21 03:52:06;;;;;;;13.13;7.60;;;9.70;75.50;;;10.01;44.28;102058.91;5091561;28;20617;-69
2022/03/21 03:54:33;;;;;;;12.90;7.20;;;9.60;75.20;;;9.98;44.44;102058.22;5074268;28;21224;-69
2022/03/21 03:57:00;;;;;;;11.97;7.67;;;9.60;75.60;;;9.93;44.84;102054.97;5071195;28;21101;-67
2022/03/21 03:59:26;;;;;;;12.33;7.27;;;9.50;76.20;;;9.94;44.50;102054.06;5081890;28;20625;-70
2022/03/21 04:01:53;;;;;;;12.60;7.00;;;9.60;75.90;;;9.93;44.71;102057.56;5088337;28;21281;-70
2022/03/21 04:04:21;;;;;;;10.60;6.27;;;9.50;76.20;;;9.89;44.44;102061.25;5067647;28;20718;-70
2022/03/21 04:06:48;;;;;;;11.30;6.50;;;9.50;75.80;;;9.88;44.30;102064.78;5069634;28;20645;-70
2022/03/21 04:09:14;;;;;;;11.33;6.43;;;9.50;76.00;;;9.84;44.14;102061.47;5069320;28;20655;-70
2022/03/21 04:11:41;;;;;;;13.27;6.70;;;9.50;75.90;;;9.78;44.54;102064.34;5069822;28;20618;-69
2022/03/21 04:14:09;;;;;;;11.30;7.20;;;9.40;76.10;;;9.77;45.11;102072.25;5064892;28;20640;-70
2022/03/21 04:16:44;;;;;;;11.40;6.13;;;9.30;76.50;;;9.64;45.24;102079.78;5089618;28;20665;-70
2022/03/21 04:19:14;;;;;;;11.30;6.80;;;9.30;77.30;;;9.61;45.52;102079.91;5081599;28;20745;-70
2022/03/21 04:21:41;;;;;;;11.73;6.07;;;9.20;77.20;;;9.49;45.50;102085.69;5068847;28;20761;-70
2022/03/21 04:24:08;;;;;;;12.97;7.13;;;9.10;77.40;;;9.45;45.61;102081.53;5069361;28;20622;-70
2022/03/21 04:26:35;;;;;;;12.00;7.13;;;9.00;77.80;;;9.44;46.23;102079.81;5058180;28;20639;-70
2022/03/21 04:29:04;;;;;;;13.93;7.50;;;9.00;78.60;;;9.43;46.17;102077.28;5069415;28;20661;-70
2022/03/21 04:31:33;;;;;;;12.90;6.97;;;9.00;79.30;;;9.41;47.06;102084.31;5089847;28;20672;-70
2022/03/21 04:34:00;;;;;;;12.60;7.70;;;9.00;80.70;;;9.35;47.63;102091.50;5079680;28;21005;-71
2022/03/21 04:36:29;;;;;;;14.97;7.30;;;8.90;82.00;;;9.24;47.68;102093.72;5070097;28;21020;-70
2022/03/21 04:38:56;;;;;;;14.17;8.40;;;8.80;82.80;;;9.21;48.25;102101.66;5063843;28;21026;-70
2022/03/21 04:41:23;;;;;;;15.20;7.97;;;8.80;83.60;;;9.16;48.04;102095.81;5077755;28;20605;-70
2022/03/21 04:43:50;;;;;;;13.97;7.53;;;8.70;83.70;;;9.13;48.02;102106.38;5093637;28;20620;-69
2022/03/21 04:46:18;;;;;;;11.60;6.90;;;8.70;84.30;;;9.08;48.04;102110.06;5094661;28;20621;-68
2022/03/21 04:48:45;;;;;;;16.20;7.40;;;8.70;84.00;;;9.03;48.90;102112.84;5080394;28;20662;-67
2022/03/21 04:51:12;;;;;;;13.87;7.53;;;8.60;85.40;;;9.00;50.28;102109.53;5072120;28;20637;-69
2022/03/21 04:53:39;;;;;;;11.37;7.07;;;8.60;87.40;;;8.96;50.50;102113.19;5071304;28;20626;-68
2022/03/21 04:56:06;;;;;;;12.63;7.10;;;8.50;89.00;;;8.95;50.03;102111.47;5071838;28;20664;-69
2022/03/21 04:58:33;;;;;;;15.00;8.33;;;8.50;90.00;;;8.86;51.36;102117.09;5072182;28;21014;-68
2022/03/21 05:01:00;;;;;;;15.97;8.37;;;8.40;90.50;;;8.87;51.58;102118.78;5072661;28;20703;-68
2022/03/21 05:03:28;;;;;;;16.27;7.90;;;8.40;91.50;;;8.86;51.53;102112.72;5072625;28;20658;-68
2022/03/21 05:05:55;;;;;;;14.23;7.70;;;8.40;91.60;;;8.85;51.73;102120.59;5073578;28;21264;-68
2022/03/21 05:08:22;;;;;;;15.77;8.23;;;8.40;92.00;;;8.83;52.16;102122.41;5070344;28;20668;-68
2022/03/21 05:10:49;;;;;;;18.27;8.70;;;8.40;92.70;;;8.83;53.15;102123.25;5066937;28;20621;-69
2022/03/21 05:13:16;;;;;;;13.00;8.20;;;8.40;93.40;;;8.77;53.51;102133.94;5071976;28;20619;-69
2022/03/21 05:15:43;;;;;;;15.33;7.83;;;8.40;94.20;;;8.72;53.37;102133.25;5051594;28;20658;-67
2022/03/21 05:18:10;;;;;;;16.40;8.87;;;8.30;94.90;;;8.72;53.96;102135.00;5051940;28;20641;-68
2022/03/21 05:20:37;;;;;;;14.53;7.87;;;8.30;95.60;;;8.71;53.63;102136.75;5068761;28;20634;-70
2022/03/21 05:31:20;;;;;;;15.33;8.40;;;8.20;98.10;;;8.58;56.27;102148.59;5071117;28;20622;-69
2022/03/21 05:36:50;;;;;;;15.60;8.47;;;8.20;99.20;;;8.57;56.10;102142.53;5010187;28;20665;-67
2022/03/21 05:39:17;;;;;;;17.43;8.97;;;8.20;99.70;;;8.52;56.70;102143.59;5044135;28;20666;-72
2022/03/21 05:41:45;;;;;;;17.77;9.30;;;8.20;99.90;;;8.54;56.73;102147.84;5069372;28;21007;-70
2022/03/21 05:44:12;;;;;;;17.77;8.90;;;8.20;99.90;;;8.61;56.37;102143.25;5090520;28;20620;-68
2022/03/21 05:46:39;;;;;;;16.80;9.20;;;8.20;99.90;;;8.70;56.23;102147.25;5091926;28;20716;-70
2022/03/21 05:49:06;;;;;;;21.67;9.87;;;8.40;99.90;;;8.78;56.21;102151.22;5091913;28;20645;-72
2022/03/21 05:51:37;;;;;;;15.10;9.00;;;8.50;99.90;;;8.90;56.48;102150.72;5071241;28;21091;-70
2022/03/21 05:54:08;;;;;;;14.03;8.63;;;8.60;99.80;;;9.04;56.03;102158.81;5072414;28;20622;-68
2022/03/21 05:56:36;;;;;;;15.93;8.90;;;8.80;99.60;;;9.23;55.09;102151.94;5071900;28;21245;-69
2022/03/21 06:01:53;;;;;;;17.60;8.50;;;9.30;98.40;;;9.68;54.49;102153.47;5071394;28;20723;-68
2022/03/21 06:04:23;;;;;;;15.13;8.87;;;9.50;97.70;;;9.89;53.52;102161.19;5091441;28;20709;-69
2022/03/21 06:06:50;;;;;;;17.37;9.97;;;9.80;96.80;;;10.16;52.73;102163.50;5075998;28;21293;-70
2022/03/21 06:09:17;;;;;;;15.53;8.77;;;10.10;95.80;;;10.41;52.24;102167.50;5072757;28;20737;-69
2022/03/21 06:11:48;;;;;;;18.30;10.40;;;10.40;94.90;;;10.70;51.77;102176.53;5053704;28;21194;-69
2022/03/21 06:14:18;;;;;;;18.43;10.30;;;10.80;94.10;;;11.06;51.37;102176.50;5079374;28;20622;-70
2022/03/21 06:16:46;;;;;;;19.07;10.30;;;11.10;93.40;;;11.48;49.27;102183.03;5082107;28;20662;-67
2022/03/21 06:19:14;;;;;;;16.77;9.83;;;11.60;92.10;;;11.90;48.39;102182.63;5073774;28;20634;-73
2022/03/21 06:21:41;;;;;;;17.83;10.30;;;12.00;90.80;;;12.32;47.39;102184.69;5064014;28;20634;-71
2022/03/21 06:24:12;;;;;;;15.50;9.10;;;12.50;89.10;;;12.73;46.46;102185.00;5071844;28;20626;-71
2022/03/21 06:26:41;;;;;;;15.67;9.50;;;13.00;85.50;;;13.18;44.97;102191.09;5071345;28;20615;-68
2022/03/21 06:29:08;;;;;;;18.70;10.70;;;13.50;82.90;;;13.62;44.00;102196.38;5072255;28;20642;-70
2022/03/21 06:31:35;;;;;;;18.17;10.70;;;14.00;79.90;;;14.04;43.33;102198.16;5083333;28;21179;-68
2022/03/21 06:34:03;;;;;;;16.43;10.30;;;14.50;77.00;;;14.48;42.47;102196.22;5092030;28;20614;-69
2022/03/21 06:36:30;;;;;;;21.50;10.70;;;15.00;74.50;;;14.94;41.37;102206.41;5091501;28;20702;-69
2022/03/21 06:38:57;;;;;;;18.77;11.23;;;15.60;71.70;;;15.40;40.37;102205.03;5089459;28;20640;-70
2022/03/21 06:41:24;;;;;;;17.97;11.07;;;16.10;69.10;;;15.88;39.26;102207.00;5064953;28;20638;-70
2022/03/21 06:43:51;;;;;;;18.90;11.67;;;16.60;66.00;;;16.35;38.07;102202.81;5051018;28;20619;-72
2022/03/21 06:46:19;;;;;;;18.97;11.30;;;17.10;63.10;;;16.82;37.37;102203.72;5056529;28;20653;-70
2022/03/21 06:48:46;;;;;;;18.57;11.50;;;17.70;61.30;;;17.37;36.15;102210.19;5072582;28;20694;-69
2022/03/21 06:51:13;;;;;;;18.20;11.47;;;18.20;59.00;;;17.77;34.16;102216.75;5071849;28;20639;-72
2022/03/21 06:53:40;;;;;;;17.97;11.50;;;18.80;55.40;;;18.11;32.64;102217.63;5072352;28;20750;-69
2022/03/21 06:56:07;;;;;;;20.10;10.70;;;19.10;52.80;;;18.44;31.86;102217.63;5086577;28;20654;-68
2022/03/21 06:58:34;;;;;;;22.70;12.60;;;19.50;51.30;;;18.85;31.38;102222.19;5071463;28;21308;-68
2022/03/21 07:01:01;;;;;;;16.60;9.23;;;19.90;50.20;;;19.15;29.91;102230.25;5070998;28;20664;-69
2022/03/21 07:03:29;;;;;;;14.77;9.33;;;20.30;48.30;;;19.04;28.44;102230.31;5071706;28;20955;-68
2022/03/21 07:05:56;;;;;;;12.80;8.90;;;20.30;45.40;;;18.85;28.62;102230.97;5071695;28;21181;-68
2022/03/21 07:08:29;;;;;;;15.00;9.67;;;19.80;45.70;;;18.73;28.44;102232.00;5069288;28;20670;-69
2022/03/21 07:10:56;;;;;;;14.37;8.60;;;19.80;45.00;;;19.22;27.89;102228.81;5069454;28;20631;-68
2022/03/21 07:13:23;;;;;;;9.47;7.47;;;20.10;44.50;;;19.72;27.16;102241.28;5061756;28;21193;-70
2022/03/21 07:15:52;;;;;;;13.17;8.33;;;20.60;43.80;;;20.05;26.60;102243.72;5069886;28;20654;-70
2022/03/21 07:18:19;;;;;;;13.90;9.13;;;21.00;43.30;;;20.60;26.18;102233.59;5090435;28;20630;-70
2022/03/21 07:20:45;;;;;;;17.10;9.97;;;21.50;42.60;;;20.98;25.72;102238.94;5075985;28;21174;-70
2022/03/21 07:23:12;;;;;;;12.70;8.50;;;22.00;41.90;;;21.46;25.09;102245.13;5069005;28;20629;-70
2022/03/21 07:25:40;;;;;;;12.70;8.17;;;22.40;41.30;;;21.87;24.47;102249.25;5083874;28;20628;-70
2022/03/21 07:28:08;;;;;;;12.77;8.30;;;22.90;40.20;;;21.60;24.35;102249.13;5053069;28;20655;-69
2022/03/21 07:30:36;;;;;;;17.50;8.53;;;22.70;39.70;;;21.14;24.67;102254.34;5082509;28;21011;-70
2022/03/21 07:33:04;;;;;;;12.43;8.67;;;22.30;39.90;;;19.86;26.08;102258.66;5066394;28;20734;-69
2022/03/21 07:35:31;;;;;;;15.43;9.30;;;21.10;40.80;;;19.44;26.99;102255.19;5089540;28;21219;-70
2022/03/21 07:38:22;;;;;;;12.70;7.90;;;20.70;41.60;;;20.11;26.34;102259.06;5069661;28;20631;-70
2022/03/21 07:40:49;;;;;;;13.70;8.50;;;20.80;42.10;;;21.08;25.76;102257.56;5049074;28;20734;-70
2022/03/21 07:43:17;;;;;;;12.20;8.20;;;21.50;41.60;;;21.48;24.98;102261.75;5080526;28;20633;-72
2022/03/21 07:48:29;;;;;;;13.67;8.00;;;22.50;40.30;;;22.42;23.83;102256.28;5069866;28;21048;-70
2022/03/21 07:50:56;;;;;;;15.13;9.37;;;23.00;39.50;;;22.87;23.05;102266.16;5058761;28;20639;-70
2022/03/21 07:53:23;;;;;;;15.87;10.00;;;23.50;38.60;;;23.38;22.60;102269.00;5070204;28;20619;-70
2022/03/21 07:55:50;;;;;;;14.87;10.17;;;24.00;38.00;;;23.85;22.04;102266.84;5067571;28;20807;-70
2022/03/21 07:58:17;;;;;;;15.10;10.50;;;24.60;37.40;;;24.26;21.51;102263.41;5069637;28;20649;-71
2022/03/21 08:00:44;;;;;;;15.60;10.17;;;25.00;36.70;;;24.58;21.10;102268.03;5068917;28;21205;-70
2022/03/21 08:03:15;;;;;;;15.67;10.77;;;25.20;36.30;;;24.91;21.12;102264.50;5070786;28;20684;-70
2022/03/21 08:05:42;;;;;;;13.60;10.03;;;25.30;36.30;;;25.05;21.34;102271.00;5063676;28;21248;-73
2022/03/21 08:08:10;;;;;;;15.23;10.80;;;25.50;36.40;;;25.48;20.91;102272.56;5068104;28;20658;-71
2022/03/21 08:10:37;;;;;;;15.37;10.77;;;26.00;36.20;;;25.90;20.54;102271.34;5069279;28;20614;-70
2022/03/21 08:13:04;;;;;;;16.17;11.37;;;26.40;35.60;;;26.21;20.04;102270.63;5070026;28;20974;-70
2022/03/21 08:15:31;;;;;;;14.90;11.35;;;26.70;35.40;;;26.48;19.70;102264.81;5074785;28;20714;-71
2022/03/21 08:18:00;;;;;;;16.83;12.10;;;27.00;34.70;;;26.74;19.49;102268.06;5073562;28;20650;-72
2022/03/21 08:20:33;;;;;;;15.33;11.37;;;27.20;34.70;;;26.82;19.39;102268.84;5071341;28;20738;-69
2022/03/21 08:23:04;;;;;;;16.93;12.00;;;27.40;34.30;;;26.95;19.08;102267.41;5071929;28;20666;-67
2022/03/21 08:25:31;;;;;;;15.30;11.00;;;27.70;33.90;;;27.31;18.94;102272.00;5072005;28;20626;-70
2022/03/21 08:27:58;;;;;;;18.17;11.17;;;27.90;34.10;;;27.26;18.83;102271.69;5073261;28;21073;-71
2022/03/21 08:30:27;;;;;;;16.90;12.13;;;28.10;33.40;;;27.04;18.52;102277.06;5075653;28;20629;-71
2022/03/21 08:32:54;;;;;;;12.80;9.60;;;28.10;33.10;;;27.92;18.59;102276.28;5073737;28;21015;-70
2022/03/21 08:35:21;;;;;;;17.03;11.70;;;28.40;33.30;;;27.87;18.09;102280.56;5071460;28;21061;-70
2022/03/21 08:37:48;;;;;;;16.17;11.00;;;28.50;32.70;;;27.76;18.33;102281.00;5089061;28;20673;-70
2022/03/21 08:40:16;;;;;;;18.03;12.07;;;28.60;32.80;;;27.48;18.46;102278.91;5076579;28;20622;-70
2022/03/21 08:42:43;;;;;;;18.27;12.03;;;29.00;32.40;;;28.63;17.97;102286.41;5072690;28;21153;-71
2022/03/21 08:45:12;;;;;;;14.63;11.43;;;29.40;32.40;;;29.20;17.17;102281.03;5066621;28;20638;-72
2022/03/21 08:47:39;;;;;;;17.00;11.50;;;29.90;32.10;;;29.97;16.77;102278.34;5084225;28;20694;-70
2022/03/21 08:50:08;;;;;;;18.47;12.60;;;30.80;31.70;;;30.59;16.63;102281.78;5093364;28;20621;-70
2022/03/21 08:52:36;;;;;;;17.10;11.80;;;31.80;31.20;;;30.84;16.01;102285.59;5069978;28;20642;-70
2022/03/21 08:55:04;;;;;;;14.50;11.30;;;32.50;30.60;;;31.65;15.39;102286.31;5070175;28;20622;-72
2022/03/21 08:57:32;;;;;;;17.70;11.37;;;33.10;30.40;;;31.98;15.12;102287.16;5068284;28;20674;-74
2022/03/21 08:59:59;;;;;;;17.20;12.33;;;33.50;30.00;;;32.21;14.80;102278.56;5082674;28;20621;-73
2022/03/21 09:02:26;;;;;;;15.50;11.50;;;33.70;29.90;;;32.47;14.80;102273.91;5081790;28;20642;-71
2022/03/21 09:04:53;;;;;;;18.07;13.00;;;34.30;29.70;;;32.11;14.90;102269.03;5072036;28;21216;-71
2022/03/21 09:07:20;;;;;;;16.60;12.57;;;34.40;29.40;;;32.12;15.05;102277.97;5070632;28;21131;-71
2022/03/21 09:09:47;;;;;;;15.90;12.80;;;34.10;29.60;;;33.01;14.94;102273.41;5072198;28;20602;-71
2022/03/21 09:12:14;;;;;;;19.37;13.53;;;35.10;29.60;;;33.82;13.88;102273.38;5071561;28;20630;-73
2022/03/21 09:14:42;;;;;;;19.50;13.27;;;36.00;29.40;;;34.69;13.89;102278.41;5071758;28;20617;-71
2022/03/21 09:17:10;;;;;;;17.40;12.33;;;37.00;29.10;;;34.91;13.55;102269.50;5069255;28;21232;-72
2022/03/21 09:19:37;;;;;;;18.77;12.63;;;37.20;28.70;;;35.37;13.15;102279.66;5071372;28;20637;-72
2022/03/21 09:22:04;;;;;;;18.03;11.80;;;37.80;28.60;;;35.50;12.80;102276.72;5069551;28;20626;-73
2022/03/21 09:24:32;;;;;;;17.37;13.60;;;38.30;28.30;;;34.94;13.06;102271.78;5071026;28;21003;-73
2022/03/21 09:26:59;;;;;;;17.03;13.70;;;37.90;28.20;;;34.75;12.95;102275.59;5070799;28;20610;-74
2022/03/21 09:29:26;;;;;;;14.03;12.50;;;37.60;28.30;;;35.02;12.94;102276.88;5070925;28;20643;-74
2022/03/21 09:31:53;;;;;;;18.27;14.67;;;38.20;28.10;;;35.71;13.29;102269.88;5071192;28;20622;-74
2022/03/21 09:34:20;;;;;;;18.50;13.97;;;38.60;28.10;;;36.11;12.60;102276.25;5071787;28;20633;-73
2022/03/21 09:36:48;;;;;;;17.37;14.47;;;39.10;28.00;;;36.52;12.30;102269.75;5070583;28;20681;-69
2022/03/21 09:39:15;;;;;;;18.37;13.53;;;39.60;27.90;;;36.57;12.32;102265.22;5065975;28;20661;-71
2022/03/21 09:41:44;;;;;;;19.07;15.27;;;39.80;27.70;;;36.72;12.42;102264.69;5065455;28;21415;-70
2022/03/21 09:44:12;;;;;;;16.70;14.27;;;39.70;27.60;;;36.99;12.05;102262.19;5069743;28;20611;-71
2022/03/21 09:46:44;;;;;;;18.37;14.50;;;40.00;27.50;;;37.31;11.72;102246.94;5065366;28;20618;-68
2022/03/21 09:49:16;;;;;;;19.70;16.03;;;40.30;27.50;;;37.72;12.14;102251.91;5071905;28;20658;-69
2022/03/21 09:51:46;;;;;;;17.87;14.37;;;40.80;27.30;;;37.25;11.76;102245.19;5056272;28;21006;-70
2022/03/21 09:54:13;;;;;;;14.53;12.97;;;40.90;27.20;;;37.57;11.37;102232.63;5051876;28;20659;-70
2022/03/21 09:56:40;;;;;;;19.70;15.77;;;40.70;27.20;;;37.69;11.38;102236.09;5069422;28;21221;-70
2022/03/21 09:59:08;;;;;;;23.77;16.20;;;40.50;27.20;;;37.62;11.89;102240.88;5070323;28;20737;-69
2022/03/21 10:01:36;;;;;;;15.73;13.50;;;40.60;27.40;;;37.99;11.77;102241.16;5064003;28;20757;-70
2022/03/21 10:04:06;;;;;;;16.47;14.30;;;41.00;27.10;;;38.41;11.00;102239.47;5067837;28;21190;-70
2022/03/21 10:06:35;;;;;;;22.47;15.97;;;41.30;27.10;;;38.84;11.58;102245.91;5070372;28;20646;-71
2022/03/21 10:09:06;;;;;;;17.93;15.10;;;41.70;27.70;;;38.93;11.38;102245.19;5067981;28;20673;-70
2022/03/21 10:11:34;;;;;;;17.20;14.23;;;41.80;27.10;;;39.50;10.44;102238.00;5083897;28;20617;-72
2022/03/21 10:14:36;;;;;;;16.50;14.20;;;42.40;26.90;;;39.57;10.81;102236.97;5049145;28;20742;-70
2022/03/21 10:17:11;;;;;;;19.57;16.33;;;42.60;26.70;;;39.91;10.47;102243.69;5051112;28;20662;-70
2022/03/21 10:19:46;;;;;;;16.70;14.17;;;42.80;26.80;;;39.85;10.16;102236.53;5062450;28;20618;-70
2022/03/21 10:22:22;;;;;;;15.30;13.70;;;43.00;26.60;;;38.70;11.23;102229.97;5066280;28;20755;-72
2022/03/21 10:24:52;;;;;;;17.57;14.13;;;42.20;26.50;;;38.46;10.44;102225.06;5080824;28;20704;-72
2022/03/21 10:27:44;;;;;;;17.17;14.43;;;42.00;26.60;;;38.80;11.08;102226.53;5074988;28;21014;-73
2022/03/21 10:30:32;;;;;;;19.17;14.83;;;41.70;26.60;;;38.80;11.18;102227.31;5077996;28;21213;-73
2022/03/21 10:32:59;;;;;;;16.00;13.30;;;41.90;26.90;;;37.10;11.92;102215.03;5072760;28;20642;-72
2022/03/21 10:35:31;;;;;;;19.80;15.37;;;40.80;26.70;;;36.28;12.37;102222.78;5053455;28;20699;-73